sensor_id;sensor_type;location;lat;lon;timestamp;pressure;altitude;pressure_sealevel;temperature
15360;BMP280;7779;49.596;11.070;2022-11-21T00:00:52;97252.81;;;8.99
15360;BMP280;7779;49.596;11.070;2022-11-21T00:03:18;97258.66;;;8.99
15360;BMP280;7779;49.596;11.070;2022-11-21T00:05:46;97266.28;;;9.02
15360;BMP280;7779;49.596;11.070;2022-11-21T00:08:20;97258.88;;;9.04
15360;BMP280;7779;49.596;11.070;2022-11-21T00:10:46;97260.59;;;9.05
15360;BMP280;7779;49.596;11.070;2022-11-21T00:13:19;97259.78;;;9.06
15360;BMP280;7779;49.596;11.070;2022-11-21T00:15:46;97255.66;;;9.06
15360;BMP280;7779;49.596;11.070;2022-11-21T00:18:12;97252.38;;;9.07
15360;BMP280;7779;49.596;11.070;2022-11-21T00:20:39;97255.78;;;9.09
15360;BMP280;7779;49.596;11.070;2022-11-21T00:23:06;97248.28;;;9.09
15360;BMP280;7779;49.596;11.070;2022-11-21T00:25:32;97253.28;;;9.09
15360;BMP280;7779;49.596;11.070;2022-11-21T00:27:57;97252.44;;;9.09
15360;BMP280;7779;49.596;11.070;2022-11-21T00:30:23;97253.28;;;9.09
15360;BMP280;7779;49.596;11.070;2022-11-21T00:32:49;97257.50;;;9.10
15360;BMP280;7779;49.596;11.070;2022-11-21T00:35:15;97249.22;;;9.11
15360;BMP280;7779;49.596;11.070;2022-11-21T00:37:40;97244.22;;;9.11
15360;BMP280;7779;49.596;11.070;2022-11-21T00:40:07;97234.22;;;9.11
15360;BMP280;7779;49.596;11.070;2022-11-21T00:42:33;97237.53;;;9.10
15360;BMP280;7779;49.596;11.070;2022-11-21T00:44:58;97237.53;;;9.10
15360;BMP280;7779;49.596;11.070;2022-11-21T00:47:24;97239.22;;;9.11
15360;BMP280;7779;49.596;11.070;2022-11-21T00:49:50;97240.81;;;9.09
15360;BMP280;7779;49.596;11.070;2022-11-21T00:52:16;97235.81;;;9.09
15360;BMP280;7779;49.596;11.070;2022-11-21T00:54:42;97229.22;;;9.11
15360;BMP280;7779;49.596;11.070;2022-11-21T00:57:08;97234.22;;;9.11
15360;BMP280;7779;49.596;11.070;2022-11-21T00:59:34;97230.06;;;9.12
15360;BMP280;7779;49.596;11.070;2022-11-21T01:02:00;97229.22;;;9.11
15360;BMP280;7779;49.596;11.070;2022-11-21T01:04:29;97228.50;;;9.14
15360;BMP280;7779;49.596;11.070;2022-11-21T01:06:55;97226.94;;;9.16
15360;BMP280;7779;49.596;11.070;2022-11-21T01:09:21;97225.28;;;9.16
15360;BMP280;7779;49.596;11.070;2022-11-21T01:11:46;97218.72;;;9.18
15360;BMP280;7779;49.596;11.070;2022-11-21T01:14:12;97222.13;;;9.20
15360;BMP280;7779;49.596;11.070;2022-11-21T01:16:38;97211.38;;;9.21
15360;BMP280;7779;49.596;11.070;2022-11-21T01:19:03;97214.78;;;9.23
15360;BMP280;7779;49.596;11.070;2022-11-21T01:21:31;97221.47;;;9.24
15360;BMP280;7779;49.596;11.070;2022-11-21T01:24:00;97215.69;;;9.25
15360;BMP280;7779;49.596;11.070;2022-11-21T01:26:29;97215.78;;;9.27
15360;BMP280;7779;49.596;11.070;2022-11-21T01:28:57;97211.63;;;9.27
15360;BMP280;7779;49.596;11.070;2022-11-21T01:31:27;97204.19;;;9.29
15360;BMP280;7779;49.596;11.070;2022-11-21T01:33:54;97210.97;;;9.31
15360;BMP280;7779;49.596;11.070;2022-11-21T01:36:30;97206.88;;;9.33
15360;BMP280;7779;49.596;11.070;2022-11-21T01:38:59;97206.09;;;9.34
15360;BMP280;7779;49.596;11.070;2022-11-21T01:41:30;97203.59;;;9.34
15360;BMP280;7779;49.596;11.070;2022-11-21T01:43:59;97208.59;;;9.34
15360;BMP280;7779;49.596;11.070;2022-11-21T01:46:25;97215.28;;;9.35
15360;BMP280;7779;49.596;11.070;2022-11-21T01:57:26;97212.13;;;9.39
15360;BMP280;7779;49.596;11.070;2022-11-21T02:02:30;97208.09;;;9.42
15360;BMP280;7779;49.596;11.070;2022-11-21T02:05:00;97209.91;;;9.45
15360;BMP280;7779;49.596;11.070;2022-11-21T02:07:29;97217.50;;;9.48
15360;BMP280;7779;49.596;11.070;2022-11-21T02:10:00;97216.81;;;9.50
15360;BMP280;7779;49.596;11.070;2022-11-21T02:12:57;97217.78;;;9.54
15360;BMP280;7779;49.596;11.070;2022-11-21T02:15:27;97217.91;;;9.57
15360;BMP280;7779;49.596;11.070;2022-11-21T02:17:54;97214.63;;;9.58
15360;BMP280;7779;49.596;11.070;2022-11-21T02:20:24;97209.75;;;9.61
15360;BMP280;7779;49.596;11.070;2022-11-21T02:23:26;97208.19;;;9.63
15360;BMP280;7779;49.596;11.070;2022-11-21T02:25:52;97209.03;;;9.63
15360;BMP280;7779;49.596;11.070;2022-11-21T02:28:21;97207.44;;;9.65
15360;BMP280;7779;49.596;11.070;2022-11-21T02:30:49;97207.50;;;9.67
15360;BMP280;7779;49.596;11.070;2022-11-21T02:33:16;97200.00;;;9.67
15360;BMP280;7779;49.596;11.070;2022-11-21T02:35:41;97201.00;;;9.70
15360;BMP280;7779;49.596;11.070;2022-11-21T02:38:21;97201.84;;;9.71
15360;BMP280;7779;49.596;11.070;2022-11-21T02:40:57;97200.13;;;9.70
15360;BMP280;7779;49.596;11.070;2022-11-21T02:43:32;97205.13;;;9.70
15360;BMP280;7779;49.596;11.070;2022-11-21T02:45:59;97201.00;;;9.70
15360;BMP280;7779;49.596;11.070;2022-11-21T02:48:25;97195.91;;;9.69
15360;BMP280;7779;49.596;11.070;2022-11-21T02:50:51;97196.75;;;9.69
15360;BMP280;7779;49.596;11.070;2022-11-21T02:53:17;97191.84;;;9.71
15360;BMP280;7779;49.596;11.070;2022-11-21T02:55:44;97196.00;;;9.70
15360;BMP280;7779;49.596;11.070;2022-11-21T02:58:11;97196.84;;;9.71
15360;BMP280;7779;49.596;11.070;2022-11-21T03:00:39;97189.34;;;9.71
15360;BMP280;7779;49.596;11.070;2022-11-21T03:03:05;97184.31;;;9.71
15360;BMP280;7779;49.596;11.070;2022-11-21T03:05:31;97192.69;;;9.71
15360;BMP280;7779;49.596;11.070;2022-11-21T03:07:57;97188.56;;;9.72
15360;BMP280;7779;49.596;11.070;2022-11-21T03:10:23;97183.56;;;9.72
15360;BMP280;7779;49.596;11.070;2022-11-21T03:12:49;97177.66;;;9.71
15360;BMP280;7779;49.596;11.070;2022-11-21T03:15:15;97182.69;;;9.71
15360;BMP280;7779;49.596;11.070;2022-11-21T03:17:41;97190.09;;;9.70
15360;BMP280;7779;49.596;11.070;2022-11-21T03:20:08;97179.25;;;9.69
15360;BMP280;7779;49.596;11.070;2022-11-21T03:22:34;97181.81;;;9.71
15360;BMP280;7779;49.596;11.070;2022-11-21T03:25:00;97182.59;;;9.70
15360;BMP280;7779;49.596;11.070;2022-11-21T03:27:26;97183.41;;;9.69
15360;BMP280;7779;49.596;11.070;2022-11-21T03:29:52;97191.00;;;9.70
15360;BMP280;7779;49.596;11.070;2022-11-21T03:32:17;97189.25;;;9.69
15360;BMP280;7779;49.596;11.070;2022-11-21T03:34:44;97178.47;;;9.70
15360;BMP280;7779;49.596;11.070;2022-11-21T03:37:09;97182.69;;;9.71
15360;BMP280;7779;49.596;11.070;2022-11-21T03:39:35;97186.06;;;9.72
15360;BMP280;7779;49.596;11.070;2022-11-21T03:42:01;97177.59;;;9.70
15360;BMP280;7779;49.596;11.070;2022-11-21T03:44:28;97184.31;;;9.71
15360;BMP280;7779;49.596;11.070;2022-11-21T03:46:54;97180.09;;;9.70
15360;BMP280;7779;49.596;11.070;2022-11-21T03:49:19;97175.09;;;9.70
15360;BMP280;7779;49.596;11.070;2022-11-21T03:51:45;97166.69;;;9.68
15360;BMP280;7779;49.596;11.070;2022-11-21T03:54:11;97171.69;;;9.68
15360;BMP280;7779;49.596;11.070;2022-11-21T03:56:37;97162.56;;;9.68
15360;BMP280;7779;49.596;11.070;2022-11-21T03:59:06;97159.19;;;9.68
15360;BMP280;7779;49.596;11.070;2022-11-21T04:01:32;97157.50;;;9.67
15360;BMP280;7779;49.596;11.070;2022-11-21T04:03:58;97158.28;;;9.66
15360;BMP280;7779;49.596;11.070;2022-11-21T04:06:24;97154.16;;;9.66
15360;BMP280;7779;49.596;11.070;2022-11-21T04:08:50;97145.72;;;9.64
15360;BMP280;7779;49.596;11.070;2022-11-21T04:11:17;97159.94;;;9.65
15360;BMP280;7779;49.596;11.070;2022-11-21T04:13:43;97154.88;;;9.64
15360;BMP280;7779;49.596;11.070;2022-11-21T04:16:09;97157.28;;;9.62
15360;BMP280;7779;49.596;11.070;2022-11-21T04:18:35;97158.16;;;9.63
15360;BMP280;7779;49.596;11.070;2022-11-21T04:21:05;97157.25;;;9.61
15360;BMP280;7779;49.596;11.070;2022-11-21T04:23:31;97146.31;;;9.59
15360;BMP280;7779;49.596;11.070;2022-11-21T04:25:57;97151.31;;;9.59
15360;BMP280;7779;49.596;11.070;2022-11-21T04:28:23;97151.31;;;9.59
15360;BMP280;7779;49.596;11.070;2022-11-21T04:30:49;97148.81;;;9.59
15360;BMP280;7779;49.596;11.070;2022-11-21T04:33:16;97147.13;;;9.58
15360;BMP280;7779;49.596;11.070;2022-11-21T04:35:44;97147.13;;;9.58
15360;BMP280;7779;49.596;11.070;2022-11-21T04:38:10;97145.47;;;9.58
15360;BMP280;7779;49.596;11.070;2022-11-21T04:40:36;97144.63;;;9.58
15360;BMP280;7779;49.596;11.070;2022-11-21T04:43:02;97142.91;;;9.57
15360;BMP280;7779;49.596;11.070;2022-11-21T04:45:29;97143.72;;;9.56
15360;BMP280;7779;49.596;11.070;2022-11-21T04:47:54;97142.06;;;9.56
15360;BMP280;7779;49.596;11.070;2022-11-21T04:50:21;97142.06;;;9.56
15360;BMP280;7779;49.596;11.070;2022-11-21T04:52:53;97144.56;;;9.56
15360;BMP280;7779;49.596;11.070;2022-11-21T04:55:22;97147.06;;;9.56
15360;BMP280;7779;49.596;11.070;2022-11-21T04:57:49;97149.56;;;9.56
15360;BMP280;7779;49.596;11.070;2022-11-21T05:00:17;97142.06;;;9.56
15360;BMP280;7779;49.596;11.070;2022-11-21T05:02:43;97142.91;;;9.57
15360;BMP280;7779;49.596;11.070;2022-11-21T05:05:10;97142.97;;;9.58
15360;BMP280;7779;49.596;11.070;2022-11-21T05:07:37;97146.31;;;9.59
15360;BMP280;7779;49.596;11.070;2022-11-21T05:10:04;97145.47;;;9.58
15360;BMP280;7779;49.596;11.070;2022-11-21T05:12:30;97144.63;;;9.58
15360;BMP280;7779;49.596;11.070;2022-11-21T05:15:15;97141.22;;;9.56
15360;BMP280;7779;49.596;11.070;2022-11-21T05:17:40;97137.00;;;9.55
15360;BMP280;7779;49.596;11.070;2022-11-21T05:20:07;97137.00;;;9.55
15360;BMP280;7779;49.596;11.070;2022-11-21T05:22:33;97150.41;;;9.57
15360;BMP280;7779;49.596;11.070;2022-11-21T05:24:59;97154.56;;;9.56
15360;BMP280;7779;49.596;11.070;2022-11-21T05:27:24;97150.41;;;9.57
15360;BMP280;7779;49.596;11.070;2022-11-21T05:29:50;97143.78;;;9.57
15360;BMP280;7779;49.596;11.070;2022-11-21T05:32:16;97149.63;;;9.58
15360;BMP280;7779;49.596;11.070;2022-11-21T05:34:41;97152.19;;;9.59
15360;BMP280;7779;49.596;11.070;2022-11-21T05:37:07;97151.31;;;9.59
15360;BMP280;7779;49.596;11.070;2022-11-21T05:39:33;97147.13;;;9.58
15360;BMP280;7779;49.596;11.070;2022-11-21T05:41:58;97157.13;;;9.58
15360;BMP280;7779;49.596;11.070;2022-11-21T05:44:24;97162.19;;;9.59
15360;BMP280;7779;49.596;11.070;2022-11-21T05:46:50;97166.31;;;9.59
15360;BMP280;7779;49.596;11.070;2022-11-21T05:49:16;97164.63;;;9.58
15360;BMP280;7779;49.596;11.070;2022-11-21T05:51:42;97161.22;;;9.56
15360;BMP280;7779;49.596;11.070;2022-11-21T05:54:14;97168.03;;;9.60
15360;BMP280;7779;49.596;11.070;2022-11-21T05:56:40;97168.03;;;9.60
15360;BMP280;7779;49.596;11.070;2022-11-21T05:59:09;97174.75;;;9.61
15360;BMP280;7779;49.596;11.070;2022-11-21T06:01:35;97174.88;;;9.64
15360;BMP280;7779;49.596;11.070;2022-11-21T06:04:20;97174.16;;;9.66
15360;BMP280;7779;49.596;11.070;2022-11-21T06:06:45;97175.00;;;9.67
15360;BMP280;7779;49.596;11.070;2022-11-21T06:09:11;97173.41;;;9.69
15360;BMP280;7779;49.596;11.070;2022-11-21T06:11:37;97174.25;;;9.69
15360;BMP280;7779;49.596;11.070;2022-11-21T06:14:02;97168.47;;;9.70
15360;BMP280;7779;49.596;11.070;2022-11-21T06:16:28;97172.75;;;9.73
15360;BMP280;7779;49.596;11.070;2022-11-21T06:18:54;97166.16;;;9.74
15360;BMP280;7779;49.596;11.070;2022-11-21T06:21:23;97169.50;;;9.75
15360;BMP280;7779;49.596;11.070;2022-11-21T06:23:52;97172.06;;;9.76
15360;BMP280;7779;49.596;11.070;2022-11-21T06:26:22;97177.94;;;9.77
15360;BMP280;7779;49.596;11.070;2022-11-21T06:28:49;97180.47;;;9.78
15360;BMP280;7779;49.596;11.070;2022-11-21T06:31:18;97185.47;;;9.78
15360;BMP280;7779;49.596;11.070;2022-11-21T06:33:45;97182.97;;;9.78
15360;BMP280;7779;49.596;11.070;2022-11-21T06:36:16;97185.56;;;9.80
15360;BMP280;7779;49.596;11.070;2022-11-21T06:38:43;97191.38;;;9.79
15360;BMP280;7779;49.596;11.070;2022-11-21T06:41:20;97183.88;;;9.79
15360;BMP280;7779;49.596;11.070;2022-11-21T06:43:46;97185.47;;;9.78
15360;BMP280;7779;49.596;11.070;2022-11-21T06:46:14;97188.78;;;9.77
15360;BMP280;7779;49.596;11.070;2022-11-21T06:48:41;97188.78;;;9.77
15360;BMP280;7779;49.596;11.070;2022-11-21T06:51:20;97192.22;;;9.79
15360;BMP280;7779;49.596;11.070;2022-11-21T06:53:52;97196.38;;;9.79
15360;BMP280;7779;49.596;11.070;2022-11-21T06:56:25;97203.00;;;9.78
15360;BMP280;7779;49.596;11.070;2022-11-21T06:58:52;97208.00;;;9.78
15360;BMP280;7779;49.596;11.070;2022-11-21T07:01:18;97206.31;;;9.77
15360;BMP280;7779;49.596;11.070;2022-11-21T07:03:44;97204.56;;;9.76
15360;BMP280;7779;49.596;11.070;2022-11-21T07:06:11;97206.22;;;9.76
15360;BMP280;7779;49.596;11.070;2022-11-21T07:08:37;97205.38;;;9.75
15360;BMP280;7779;49.596;11.070;2022-11-21T07:11:12;97210.38;;;9.75
15360;BMP280;7779;49.596;11.070;2022-11-21T07:13:38;97208.66;;;9.74
15360;BMP280;7779;49.596;11.070;2022-11-21T07:16:08;97211.22;;;9.76
15360;BMP280;7779;49.596;11.070;2022-11-21T07:18:35;97210.38;;;9.75
15360;BMP280;7779;49.596;11.070;2022-11-21T07:21:04;97208.00;;;9.78
15360;BMP280;7779;49.596;11.070;2022-11-21T07:23:31;97211.31;;;9.77
15360;BMP280;7779;49.596;11.070;2022-11-21T07:26:04;97221.38;;;9.79
15360;BMP280;7779;49.596;11.070;2022-11-21T07:28:31;97218.00;;;9.78
15360;BMP280;7779;49.596;11.070;2022-11-21T07:30:59;97211.41;;;9.80
15360;BMP280;7779;49.596;11.070;2022-11-21T07:33:26;97216.53;;;9.83
15360;BMP280;7779;49.596;11.070;2022-11-21T07:35:55;97207.44;;;9.85
15360;BMP280;7779;49.596;11.070;2022-11-21T07:38:23;97220.84;;;9.86
15360;BMP280;7779;49.596;11.070;2022-11-21T07:40:49;97211.69;;;9.86
15360;BMP280;7779;49.596;11.070;2022-11-21T07:43:16;97206.75;;;9.88
15360;BMP280;7779;49.596;11.070;2022-11-21T07:45:42;97206.78;;;9.89
15360;BMP280;7779;49.596;11.070;2022-11-21T07:48:09;97214.28;;;9.89
15360;BMP280;7779;49.596;11.070;2022-11-21T07:50:35;97212.75;;;9.91
15360;BMP280;7779;49.596;11.070;2022-11-21T07:53:05;97216.19;;;9.93
15360;BMP280;7779;49.596;11.070;2022-11-21T07:55:32;97214.59;;;9.95
15360;BMP280;7779;49.596;11.070;2022-11-21T07:58:05;97210.50;;;9.97
15360;BMP280;7779;49.596;11.070;2022-11-21T08:00:34;97218.09;;;10.00
15360;BMP280;7779;49.596;11.070;2022-11-21T08:03:03;97222.47;;;10.04
15360;BMP280;7779;49.596;11.070;2022-11-21T08:05:29;97226.72;;;10.07
15360;BMP280;7779;49.596;11.070;2022-11-21T08:07:55;97225.19;;;10.10
15360;BMP280;7779;49.596;11.070;2022-11-21T08:10:21;97232.09;;;10.15
15360;BMP280;7779;49.596;11.070;2022-11-21T08:12:47;97233.13;;;10.20
15360;BMP280;7779;49.596;11.070;2022-11-21T08:15:13;97229.13;;;10.24
15360;BMP280;7779;49.596;11.070;2022-11-21T08:17:39;97222.59;;;10.27
15360;BMP280;7779;49.596;11.070;2022-11-21T08:20:07;97222.81;;;10.33
15360;BMP280;7779;49.596;11.070;2022-11-21T08:22:40;97223.88;;;10.40
15360;BMP280;7779;49.596;11.070;2022-11-21T08:25:08;97224.94;;;10.45
15360;BMP280;7779;49.596;11.070;2022-11-21T08:27:37;97215.88;;;10.48
15360;BMP280;7779;49.596;11.070;2022-11-21T08:30:09;97217.63;;;10.51
15360;BMP280;7779;49.596;11.070;2022-11-21T08:32:35;97221.88;;;10.52
15360;BMP280;7779;49.596;11.070;2022-11-21T08:35:01;97217.78;;;10.53
15360;BMP280;7779;49.596;11.070;2022-11-21T08:37:27;97215.25;;;10.53
15360;BMP280;7779;49.596;11.070;2022-11-21T08:39:55;97211.16;;;10.55
15360;BMP280;7779;49.596;11.070;2022-11-21T08:42:23;97207.00;;;10.56
15360;BMP280;7779;49.596;11.070;2022-11-21T08:44:50;97213.81;;;10.58
15360;BMP280;7779;49.596;11.070;2022-11-21T08:47:15;97211.28;;;10.58
15360;BMP280;7779;49.596;11.070;2022-11-21T08:49:41;97213.88;;;10.61
15360;BMP280;7779;49.596;11.070;2022-11-21T08:52:07;97219.03;;;10.64
15360;BMP280;7779;49.596;11.070;2022-11-21T08:54:32;97219.09;;;10.66
15360;BMP280;7779;49.596;11.070;2022-11-21T08:56:58;97220.00;;;10.68
15360;BMP280;7779;49.596;11.070;2022-11-21T08:59:24;97228.34;;;10.68
15360;BMP280;7779;49.596;11.070;2022-11-21T09:01:49;97224.16;;;10.67
15360;BMP280;7779;49.596;11.070;2022-11-21T09:04:17;97218.31;;;10.67
15360;BMP280;7779;49.596;11.070;2022-11-21T09:06:43;97233.22;;;10.64
15360;BMP280;7779;49.596;11.070;2022-11-21T09:09:09;97219.88;;;10.65
15360;BMP280;7779;49.596;11.070;2022-11-21T09:11:35;97227.56;;;10.69
15360;BMP280;7779;49.596;11.070;2022-11-21T09:14:03;97225.28;;;10.75
15360;BMP280;7779;49.596;11.070;2022-11-21T09:16:47;97229.75;;;10.82
15360;BMP280;7779;49.596;11.070;2022-11-21T09:19:31;97224.09;;;10.88
15360;BMP280;7779;49.596;11.070;2022-11-21T09:21:58;97228.59;;;10.96
15360;BMP280;7779;49.596;11.070;2022-11-21T09:24:23;97228.81;;;11.02
15360;BMP280;7779;49.596;11.070;2022-11-21T09:26:49;97234.06;;;11.08
15360;BMP280;7779;49.596;11.070;2022-11-21T09:29:15;97230.13;;;11.14
15360;BMP280;7779;49.596;11.070;2022-11-21T09:31:42;97226.97;;;11.20
15360;BMP280;7779;49.596;11.070;2022-11-21T09:34:08;97233.03;;;11.25
15360;BMP280;7779;49.596;11.070;2022-11-21T09:36:34;97231.50;;;11.29
15360;BMP280;7779;49.596;11.070;2022-11-21T09:38:59;97234.28;;;11.37
15360;BMP280;7779;49.596;11.070;2022-11-21T09:50:02;97236.69;;;11.56
15360;BMP280;7779;49.596;11.070;2022-11-21T09:53:23;97233.53;;;11.61
15360;BMP280;7779;49.596;11.070;2022-11-21T09:55:42;97244.78;;;11.72
15360;BMP280;7779;49.596;11.070;2022-11-21T10:01:22;97238.47;;;11.83
15360;BMP280;7779;49.596;11.070;2022-11-21T10:03:50;97236.09;;;11.87
15360;BMP280;7779;49.596;11.070;2022-11-21T10:06:33;97243.00;;;11.93
15360;BMP280;7779;49.596;11.070;2022-11-21T10:09:10;97235.56;;;11.96
15360;BMP280;7779;49.596;11.070;2022-11-21T10:27:13;97223.97;;;12.24
15360;BMP280;7779;49.596;11.070;2022-11-21T10:30:27;97221.66;;;12.30
15360;BMP280;7779;49.596;11.070;2022-11-21T10:32:55;97202.56;;;12.35
15360;BMP280;7779;49.596;11.070;2022-11-21T10:35:29;97193.41;;;12.37
15360;BMP280;7779;49.596;11.070;2022-11-21T10:38:13;97196.78;;;12.37
15360;BMP280;7779;49.596;11.070;2022-11-21T10:40:49;97199.28;;;12.37
15360;BMP280;7779;49.596;11.070;2022-11-21T10:43:46;97201.78;;;12.37
15360;BMP280;7779;49.596;11.070;2022-11-21T10:46:27;97200.09;;;12.36
15360;BMP280;7779;49.596;11.070;2022-11-21T10:49:03;97200.19;;;12.39
15360;BMP280;7779;49.596;11.070;2022-11-21T10:51:46;97191.84;;;12.40
15360;BMP280;7779;49.596;11.070;2022-11-21T10:54:16;97196.03;;;12.40
15360;BMP280;7779;49.596;11.070;2022-11-21T10:57:06;97201.06;;;12.41
15360;BMP280;7779;49.596;11.070;2022-11-21T10:59:35;97198.56;;;12.41
15360;BMP280;7779;49.596;11.070;2022-11-21T11:04:38;97193.75;;;12.47
15360;BMP280;7779;49.596;11.070;2022-11-21T11:07:27;97199.69;;;12.49
15360;BMP280;7779;49.596;11.070;2022-11-21T11:10:21;97193.75;;;12.47
15360;BMP280;7779;49.596;11.070;2022-11-21T11:12:49;97191.94;;;12.43
15360;BMP280;7779;49.596;11.070;2022-11-21T11:15:35;97192.59;;;12.38
15360;BMP280;7779;49.596;11.070;2022-11-21T11:18:05;97183.31;;;12.35
15360;BMP280;7779;49.596;11.070;2022-11-21T11:20:42;97182.44;;;12.33
15360;BMP280;7779;49.596;11.070;2022-11-21T11:23:25;97182.31;;;12.30
15360;BMP280;7779;49.596;11.070;2022-11-21T11:25:58;97176.41;;;12.28
15360;BMP280;7779;49.596;11.070;2022-11-21T11:28:35;97168.06;;;12.29
15360;BMP280;7779;49.596;11.070;2022-11-21T11:31:01;97168.81;;;12.27
15360;BMP280;7779;49.596;11.070;2022-11-21T11:38:58;97161.34;;;12.28
15360;BMP280;7779;49.596;11.070;2022-11-21T11:42:05;97148.88;;;12.31
15360;BMP280;7779;49.596;11.070;2022-11-21T11:48:00;97152.28;;;12.33
15360;BMP280;7779;49.596;11.070;2022-11-21T11:50:48;97138.91;;;12.33
15360;BMP280;7779;49.596;11.070;2022-11-21T11:53:19;97139.75;;;12.33
15360;BMP280;7779;49.596;11.070;2022-11-21T11:55:54;97146.47;;;12.34
15360;BMP280;7779;49.596;11.070;2022-11-21T12:01:29;97143.91;;;12.33
15360;BMP280;7779;49.596;11.070;2022-11-21T12:04:22;97134.53;;;12.27
15360;BMP280;7779;49.596;11.070;2022-11-21T12:07:16;97136.88;;;12.23
15360;BMP280;7779;49.596;11.070;2022-11-21T12:10:39;97140.19;;;12.20
15360;BMP280;7779;49.596;11.070;2022-11-21T12:13:10;97132.47;;;12.14
15360;BMP280;7779;49.596;11.070;2022-11-21T12:15:46;97128.94;;;12.09
15360;BMP280;7779;49.596;11.070;2022-11-21T12:21:15;97121.25;;;12.05
15360;BMP280;7779;49.596;11.070;2022-11-21T12:23:55;97111.88;;;12.00
15360;BMP280;7779;49.596;11.070;2022-11-21T12:33:15;97114.41;;;11.73
15360;BMP280;7779;49.596;11.070;2022-11-21T12:36:26;97117.44;;;11.65
15360;BMP280;7779;49.596;11.070;2022-11-21T12:40:09;97111.44;;;11.60
15360;BMP280;7779;49.596;11.070;2022-11-21T12:45:32;97110.88;;;11.69
15360;BMP280;7779;49.596;11.070;2022-11-21T12:48:17;97107.81;;;11.77
15360;BMP280;7779;49.596;11.070;2022-11-21T12:57:14;97087.56;;;11.97
15360;BMP280;7779;49.596;11.070;2022-11-21T13:05:52;97077.84;;;12.08
15360;BMP280;7779;49.596;11.070;2022-11-21T13:08:26;97084.50;;;12.07
15360;BMP280;7779;49.596;11.070;2022-11-21T13:11:31;97085.38;;;12.08
15360;BMP280;7779;49.596;11.070;2022-11-21T13:15:07;97074.53;;;12.08
15360;BMP280;7779;49.596;11.070;2022-11-21T13:20:26;97068.59;;;12.07
15360;BMP280;7779;49.596;11.070;2022-11-21T13:22:56;97063.63;;;12.08
15360;BMP280;7779;49.596;11.070;2022-11-21T13:30:55;97067.59;;;12.28
15360;BMP280;7779;49.596;11.070;2022-11-21T13:36:07;97067.72;;;12.32
15360;BMP280;7779;49.596;11.070;2022-11-21T13:47:04;97057.06;;;12.11
15360;BMP280;7779;49.596;11.070;2022-11-21T13:49:49;97055.16;;;12.05
15360;BMP280;7779;49.596;11.070;2022-11-21T13:55:44;97056.56;;;11.95
15360;BMP280;7779;49.596;11.070;2022-11-21T14:01:17;97045.22;;;11.81
15360;BMP280;7779;49.596;11.070;2022-11-21T14:04:12;97042.59;;;11.77
15360;BMP280;7779;49.596;11.070;2022-11-21T14:06:44;97043.25;;;11.71
15360;BMP280;7779;49.596;11.070;2022-11-21T14:09:19;97046.50;;;11.69
15360;BMP280;7779;49.596;11.070;2022-11-21T14:11:50;97039.66;;;11.64
15360;BMP280;7779;49.596;11.070;2022-11-21T14:17:52;97031.66;;;11.49
15360;BMP280;7779;49.596;11.070;2022-11-21T14:20:50;97025.53;;;11.42
15360;BMP280;7779;49.596;11.070;2022-11-21T14:23:20;97025.34;;;11.36
15360;BMP280;7779;49.596;11.070;2022-11-21T14:26:14;97042.72;;;11.30
15360;BMP280;7779;49.596;11.070;2022-11-21T14:28:37;97038.28;;;11.24
15360;BMP280;7779;49.596;11.070;2022-11-21T14:31:09;97037.28;;;11.19
15360;BMP280;7779;49.596;11.070;2022-11-21T14:33:46;97047.97;;;11.13
15360;BMP280;7779;49.596;11.070;2022-11-21T14:36:24;97038.59;;;11.08
15360;BMP280;7779;49.596;11.070;2022-11-21T14:38:57;97038.31;;;11.00
15360;BMP280;7779;49.596;11.070;2022-11-21T14:41:28;97036.47;;;10.95
15360;BMP280;7779;49.596;11.070;2022-11-21T14:48:56;97036.66;;;10.76
15360;BMP280;7779;49.596;11.070;2022-11-21T14:51:26;97033.91;;;10.70
15360;BMP280;7779;49.596;11.070;2022-11-21T14:53:53;97028.72;;;10.64
15360;BMP280;7779;49.596;11.070;2022-11-21T14:56:25;97021.72;;;10.56
15360;BMP280;7779;49.596;11.070;2022-11-21T14:58:53;97023.16;;;10.50
15360;BMP280;7779;49.596;11.070;2022-11-21T15:04:05;97015.91;;;10.34
15360;BMP280;7779;49.596;11.070;2022-11-21T15:06:41;97007.22;;;10.24
15360;BMP280;7779;49.596;11.070;2022-11-21T15:09:12;97001.88;;;10.15
15360;BMP280;7779;49.596;11.070;2022-11-21T15:12:04;97004.00;;;10.05
15360;BMP280;7779;49.596;11.070;2022-11-21T15:14:38;96990.25;;;9.94
15360;BMP280;7779;49.596;11.070;2022-11-21T15:17:11;96982.34;;;9.85
15360;BMP280;7779;49.596;11.070;2022-11-21T15:19:41;96982.03;;;9.76
15360;BMP280;7779;49.596;11.070;2022-11-21T15:22:33;96977.41;;;9.65
15360;BMP280;7779;49.596;11.070;2022-11-21T15:25:21;96956.91;;;9.52
15360;BMP280;7779;49.596;11.070;2022-11-21T15:28:05;96953.25;;;9.44
15360;BMP280;7779;49.596;11.070;2022-11-21T15:30:33;96949.41;;;9.32
15360;BMP280;7779;49.596;11.070;2022-11-21T15:35:54;96941.22;;;9.14
15360;BMP280;7779;49.596;11.070;2022-11-21T15:38:43;96927.44;;;9.03
15360;BMP280;7779;49.596;11.070;2022-11-21T15:46:31;96927.16;;;8.75
15360;BMP280;7779;49.596;11.070;2022-11-21T15:49:00;96925.94;;;8.66
15360;BMP280;7779;49.596;11.070;2022-11-21T15:51:39;96921.41;;;8.57
15360;BMP280;7779;49.596;11.070;2022-11-21T15:54:09;96934.31;;;8.48
15360;BMP280;7779;49.596;11.070;2022-11-21T15:56:35;96933.88;;;8.37
15360;BMP280;7779;49.596;11.070;2022-11-21T15:59:00;96927.66;;;8.28
15360;BMP280;7779;49.596;11.070;2022-11-21T16:01:29;96930.59;;;8.19
15360;BMP280;7779;49.596;11.070;2022-11-21T16:03:57;96940.00;;;8.08
15360;BMP280;7779;49.596;11.070;2022-11-21T16:06:23;96944.63;;;7.99
15360;BMP280;7779;49.596;11.070;2022-11-21T16:08:49;96939.28;;;7.91
15360;BMP280;7779;49.596;11.070;2022-11-21T16:11:22;96938.88;;;7.82
15360;BMP280;7779;49.596;11.070;2022-11-21T16:13:53;96938.50;;;7.74
15360;BMP280;7779;49.596;11.070;2022-11-21T16:16:22;96928.16;;;7.66
15360;BMP280;7779;49.596;11.070;2022-11-21T16:18:49;96921.22;;;7.59
15360;BMP280;7779;49.596;11.070;2022-11-21T16:21:15;96915.03;;;7.51
15360;BMP280;7779;49.596;11.070;2022-11-21T16:23:41;96917.09;;;7.42
15360;BMP280;7779;49.596;11.070;2022-11-21T16:26:08;96913.53;;;7.38
15360;BMP280;7779;49.596;11.070;2022-11-21T16:28:35;96914.06;;;7.31
15360;BMP280;7779;49.596;11.070;2022-11-21T16:31:02;96901.31;;;7.25
15360;BMP280;7779;49.596;11.070;2022-11-21T16:33:29;96899.34;;;7.18
15360;BMP280;7779;49.596;11.070;2022-11-21T16:35:54;96886.53;;;7.10
15360;BMP280;7779;49.596;11.070;2022-11-21T16:38:27;96887.09;;;7.05
15360;BMP280;7779;49.596;11.070;2022-11-21T16:40:59;96876.88;;;6.99